createdAt,value
2018-06-17T00:02:01.768Z,60.83
2018-06-17T00:04:34.104Z,61.19
2018-06-17T00:07:06.077Z,60.97
2018-06-17T00:09:38.250Z,61.23
2018-06-17T00:12:10.594Z,62.35
2018-06-17T00:14:44.083Z,61.66
2018-06-17T00:17:14.440Z,61.30
2018-06-17T00:19:47.884Z,61.66
2018-06-17T00:22:19.933Z,61.37
2018-06-17T00:24:53.436Z,61.15
2018-06-17T00:27:25.373Z,60.94
2018-06-17T00:30:00.000Z,60.43
2018-06-17T00:32:32.052Z,60.20
2018-06-17T00:35:05.934Z,60.80
2018-06-17T00:37:36.058Z,60.25
2018-06-17T00:40:11.204Z,60.27
2018-06-17T00:42:44.059Z,60.53
2018-06-17T00:45:18.039Z,60.40
2018-06-17T00:47:50.317Z,61.12
2018-06-17T00:50:25.594Z,61.45
2018-06-17T00:53:00.966Z,61.63
2018-06-17T00:55:34.291Z,61.90
2018-06-17T00:58:06.172Z,62.44
2018-06-17T01:00:41.136Z,62.09
2018-06-17T01:03:15.996Z,61.45
2018-06-17T01:05:48.762Z,60.66
2018-06-17T01:08:24.520Z,61.85
2018-06-17T01:10:55.912Z,62.46
2018-06-17T01:13:27.829Z,62.56
2018-06-17T01:16:01.425Z,60.30
2018-06-17T01:18:33.066Z,60.18
2018-06-17T01:21:05.461Z,60.78
2018-06-17T01:23:39.312Z,60.86
2018-06-17T01:26:10.480Z,61.07
2018-06-17T01:28:44.352Z,61.28
2018-06-17T01:31:17.610Z,61.17
2018-06-17T01:33:52.225Z,61.63
2018-06-17T01:36:25.845Z,61.47
2018-06-17T01:38:57.376Z,61.99
2018-06-17T01:41:32.478Z,62.76
2018-06-17T01:44:05.539Z,62.48
2018-06-17T01:46:38.791Z,62.85
2018-06-17T01:49:12.109Z,62.72
2018-06-17T01:51:43.731Z,62.98
2018-06-17T01:54:15.216Z,63.77
2018-06-17T01:56:48.713Z,63.91
2018-06-17T01:59:22.776Z,63.02
2018-06-17T02:01:55.914Z,63.73
2018-06-17T02:04:46.482Z,64.00
2018-06-17T02:07:35.242Z,64.17
2018-06-17T02:10:26.070Z,64.36
2018-06-17T02:12:59.184Z,65.03
2018-06-17T02:15:32.512Z,65.49
2018-06-17T02:18:05.485Z,66.18
2018-06-17T02:20:35.534Z,66.16
2018-06-17T02:23:07.090Z,65.99
2018-06-17T02:25:40.175Z,67.43
2018-06-17T02:28:13.804Z,67.49
2018-06-17T02:30:46.985Z,67.53
2018-06-17T02:33:20.233Z,67.07
2018-06-17T02:35:51.839Z,67.08
2018-06-17T02:38:23.386Z,66.61
2018-06-17T02:40:57.637Z,66.96
2018-06-17T02:43:32.627Z,67.00
2018-06-17T02:46:22.390Z,67.75
2018-06-17T02:49:10.031Z,67.87
2018-06-17T02:52:01.269Z,67.85
2018-06-17T02:54:43.660Z,67.55
2018-06-17T02:57:21.395Z,67.37
2018-06-17T02:59:54.613Z,67.27
2018-06-17T03:02:26.497Z,66.64
2018-06-17T03:05:01.134Z,67.23
2018-06-17T03:07:36.033Z,67.33
2018-06-17T03:10:09.461Z,67.93
2018-06-17T03:12:42.708Z,67.85
2018-06-17T03:15:16.312Z,68.46
2018-06-17T03:17:49.342Z,68.27
2018-06-17T03:20:20.964Z,68.50
2018-06-17T03:22:52.510Z,68.35
2018-06-17T03:25:41.102Z,68.53
2018-06-17T03:28:30.275Z,68.99
2018-06-17T03:31:22.905Z,68.74
2018-06-17T03:33:55.559Z,69.02
2018-06-17T03:36:27.065Z,68.87
2018-06-17T03:39:00.365Z,68.78
2018-06-17T03:41:32.108Z,68.39
2018-06-17T03:44:03.646Z,68.76
2018-06-17T03:46:35.968Z,68.07
2018-06-17T03:49:10.874Z,67.87
2018-06-17T03:51:44.000Z,67.98
2018-06-17T03:54:15.807Z,67.87
2018-06-17T03:56:45.716Z,67.53
2018-06-17T03:59:20.612Z,67.68
2018-06-17T04:01:53.590Z,66.82
2018-06-17T04:04:27.173Z,67.15
2018-06-17T04:06:58.705Z,67.62
2018-06-17T04:09:32.350Z,68.09
2018-06-17T04:12:03.932Z,68.23
2018-06-17T04:14:33.971Z,67.87
2018-06-17T04:17:11.926Z,67.64
2018-06-17T04:19:45.987Z,68.08
2018-06-17T04:22:17.495Z,67.47
2018-06-17T04:24:50.665Z,67.20
2018-06-17T04:27:23.747Z,67.42
2018-06-17T04:29:57.026Z,66.35
2018-06-17T04:32:28.679Z,65.86
2018-06-17T04:35:01.861Z,65.51
2018-06-17T04:37:33.506Z,65.65
2018-06-17T04:40:08.029Z,65.21
2018-06-17T04:42:40.391Z,66.05
2018-06-17T04:45:13.334Z,65.00
2018-06-17T04:47:46.644Z,64.01
2018-06-17T04:50:19.188Z,65.18
2018-06-17T04:52:52.112Z,65.76
2018-06-17T04:55:25.245Z,66.70
2018-06-17T04:57:58.136Z,66.83
2018-06-17T05:00:31.740Z,66.26
2018-06-17T05:03:04.089Z,64.73
2018-06-17T05:05:37.330Z,64.18
2018-06-17T05:08:10.196Z,64.04
2018-06-17T05:10:42.313Z,63.79
2018-06-17T05:13:12.467Z,65.15
2018-06-17T05:15:46.832Z,65.91
2018-06-17T05:18:19.338Z,65.46
2018-06-17T05:20:50.940Z,65.20
2018-06-17T05:23:22.927Z,65.11
2018-06-17T05:25:56.343Z,65.30
2018-06-17T05:28:29.291Z,64.26
2018-06-17T05:31:02.406Z,63.97
2018-06-17T05:33:35.505Z,63.45
2018-06-17T05:36:08.687Z,63.04
2018-06-17T05:38:40.804Z,63.74
2018-06-17T05:41:15.665Z,64.11
2018-06-17T05:43:48.630Z,63.02
2018-06-17T05:46:23.113Z,62.66
2018-06-17T05:48:56.433Z,62.57
2018-06-17T05:51:27.302Z,62.58
2018-06-17T05:54:00.812Z,62.34
2018-06-17T05:56:35.368Z,61.03
2018-06-17T05:59:07.810Z,60.74
2018-06-17T06:01:39.293Z,60.71
2018-06-17T06:04:11.150Z,61.52
2018-06-17T06:06:45.796Z,62.17
2018-06-17T06:09:19.105Z,61.89
2018-06-17T06:11:52.694Z,62.69
2018-06-17T06:14:27.300Z,62.34
2018-06-17T06:17:00.614Z,62.84
2018-06-17T06:19:33.550Z,62.61
2018-06-17T06:22:06.108Z,61.81
2018-06-17T06:24:39.126Z,60.54
2018-06-17T06:27:14.071Z,60.13
2018-06-17T06:29:48.760Z,60.09
2018-06-17T06:32:21.942Z,60.05
2018-06-17T06:34:55.117Z,60.28
2018-06-17T06:37:29.488Z,61.00
2018-06-17T06:40:01.018Z,60.31
2018-06-17T06:42:31.087Z,60.90
2018-06-17T06:45:04.415Z,60.34
2018-06-17T06:47:37.338Z,58.19
2018-06-17T06:50:07.439Z,58.47
2018-06-17T06:52:41.017Z,57.76
2018-06-17T06:55:13.865Z,57.65
2018-06-17T06:57:46.865Z,58.15
2018-06-17T07:00:21.463Z,59.23
2018-06-17T07:03:29.400Z,57.86
2018-06-17T07:06:35.345Z,57.79
2018-06-17T07:09:42.793Z,57.65
2018-06-17T07:12:14.290Z,57.55
2018-06-17T07:14:45.704Z,57.66
2018-06-17T07:17:52.916Z,57.61
2018-06-17T07:20:25.321Z,58.57
2018-06-17T07:22:58.767Z,59.50
2018-06-17T07:26:24.134Z,59.03
2018-06-17T07:29:39.196Z,59.51
2018-06-17T07:32:10.947Z,58.20
2018-06-17T07:34:45.560Z,58.34
2018-06-17T07:37:18.788Z,57.80
2018-06-17T07:40:29.162Z,58.76
2018-06-17T07:43:03.097Z,58.05
2018-06-17T07:45:34.514Z,58.13
2018-06-17T07:48:06.593Z,58.37
2018-06-17T07:51:12.527Z,58.22
2018-06-17T07:53:44.295Z,57.83
2018-06-17T07:56:17.327Z,58.10
2018-06-17T07:58:50.269Z,57.37
2018-06-17T08:01:25.045Z,58.75
2018-06-17T08:03:58.636Z,59.57
2018-06-17T08:06:27.733Z,58.67
2018-06-17T08:09:00.042Z,58.69
2018-06-17T08:11:31.560Z,58.67
2018-06-17T08:14:04.642Z,59.80
2018-06-17T08:16:38.022Z,58.81
2018-06-17T08:19:11.161Z,59.04
2018-06-17T08:21:42.551Z,60.28
2018-06-17T08:24:12.617Z,57.68
2018-06-17T08:26:44.727Z,58.15
2018-06-17T08:29:17.960Z,56.18
2018-06-17T08:31:50.554Z,55.89
2018-06-17T08:34:21.963Z,55.07
2018-06-17T08:36:55.093Z,55.13
2018-06-17T08:39:28.348Z,52.79
2018-06-17T08:41:58.219Z,53.66
2018-06-17T08:44:31.236Z,54.56
2018-06-17T08:47:02.785Z,53.62
2018-06-17T08:49:34.267Z,53.71
2018-06-17T08:52:06.450Z,55.12
2018-06-17T08:54:41.100Z,55.96
2018-06-17T08:57:13.039Z,55.12
2018-06-17T08:59:44.598Z,55.97
2018-06-17T09:02:15.981Z,55.84
2018-06-17T09:04:49.086Z,55.89
2018-06-17T09:07:23.514Z,57.28
2018-06-17T09:09:55.774Z,57.03
2018-06-17T09:12:27.388Z,56.94
2018-06-17T09:15:01.744Z,54.02
2018-06-17T09:17:34.858Z,54.11
2018-06-17T09:20:07.873Z,55.52
2018-06-17T09:22:38.764Z,54.59
2018-06-17T09:25:10.182Z,55.27
2018-06-17T09:27:43.217Z,55.75
2018-06-17T09:30:16.283Z,56.79
2018-06-17T09:32:47.628Z,57.39
2018-06-17T09:35:19.291Z,57.54
2018-06-17T09:37:50.695Z,56.00
2018-06-17T09:40:21.016Z,54.16
2018-06-17T09:42:54.008Z,52.79
2018-06-17T09:45:27.132Z,54.29
2018-06-17T09:47:58.795Z,53.64
2018-06-17T09:50:31.687Z,55.30
2018-06-17T09:53:03.269Z,55.04
2018-06-17T09:55:33.635Z,56.09
2018-06-17T09:58:05.115Z,55.82
2018-06-17T10:00:40.114Z,55.59
2018-06-17T10:03:14.539Z,56.10
2018-06-17T10:05:46.607Z,55.93
2018-06-17T10:08:18.579Z,54.99
2018-06-17T10:11:03.845Z,55.64
2018-06-17T10:13:43.182Z,54.93
2018-06-17T10:16:16.695Z,54.72
2018-06-17T10:18:48.217Z,53.31
2018-06-17T10:21:18.238Z,53.66
2018-06-17T10:23:49.061Z,54.12
2018-06-17T10:26:25.224Z,58.91
2018-06-17T10:28:57.265Z,58.52
2018-06-17T10:31:30.243Z,57.37
2018-06-17T10:34:03.249Z,55.72
2018-06-17T10:36:34.816Z,54.39
2018-06-17T10:39:10.190Z,53.92
2018-06-17T10:41:41.711Z,53.46
2018-06-17T10:44:16.567Z,54.05
2018-06-17T10:46:48.085Z,52.35
2018-06-17T10:49:19.676Z,52.93
2018-06-17T10:51:50.070Z,53.37
2018-06-17T10:54:23.308Z,53.69
2018-06-17T10:56:55.439Z,53.57
2018-06-17T10:59:26.882Z,53.97
2018-06-17T11:01:58.415Z,52.77
2018-06-17T11:04:28.381Z,53.57
2018-06-17T11:06:59.790Z,53.40
2018-06-17T11:09:29.719Z,52.51
2018-06-17T11:12:00.409Z,52.49
2018-06-17T11:14:30.353Z,52.93
2018-06-17T11:17:01.926Z,52.40
2018-06-17T11:19:34.974Z,50.74
2018-06-17T11:22:07.792Z,52.88
2018-06-17T11:24:41.012Z,52.00
2018-06-17T11:27:12.484Z,54.32
2018-06-17T11:29:45.905Z,53.18
2018-06-17T11:32:17.350Z,53.83
2018-06-17T11:34:48.935Z,54.41
2018-06-17T11:37:20.955Z,53.31
2018-06-17T11:39:53.881Z,54.79
2018-06-17T11:42:27.104Z,54.26
2018-06-17T11:44:59.992Z,53.99
2018-06-17T11:47:29.965Z,54.26
2018-06-17T11:49:59.978Z,55.20
2018-06-17T11:52:32.953Z,55.20
2018-06-17T11:55:06.082Z,56.69
2018-06-17T11:57:39.914Z,55.96
2018-06-17T12:00:11.550Z,55.62
2018-06-17T12:02:42.997Z,56.84
2018-06-17T12:05:15.930Z,56.97
2018-06-17T12:07:48.977Z,56.99
2018-06-17T12:10:20.930Z,56.29
2018-06-17T12:12:52.384Z,54.93
2018-06-17T12:15:24.020Z,55.01
2018-06-17T12:17:56.088Z,54.24
2018-06-17T12:20:27.828Z,53.15
2018-06-17T12:22:58.257Z,52.72
2018-06-17T12:25:32.947Z,52.85
2018-06-17T12:28:06.081Z,53.43
2018-06-17T12:30:40.035Z,52.33
2018-06-17T12:33:11.579Z,54.18
2018-06-17T12:35:44.415Z,53.24
2018-06-17T12:38:19.246Z,52.75
2018-06-17T12:40:50.795Z,50.80
2018-06-17T12:43:21.669Z,50.12
2018-06-17T12:45:54.749Z,50.28
2018-06-17T12:48:26.198Z,50.90
2018-06-17T12:51:00.837Z,50.59
2018-06-17T12:53:32.432Z,49.42
2018-06-17T12:56:04.375Z,49.64
2018-06-17T12:58:39.070Z,48.76
2018-06-17T13:01:10.705Z,48.63
2018-06-17T13:03:42.151Z,48.78
2018-06-17T13:06:13.755Z,50.18
2018-06-17T13:08:46.611Z,48.79
2018-06-17T13:11:18.141Z,52.57
2018-06-17T13:13:49.591Z,49.53
2018-06-17T13:16:22.945Z,49.96
2018-06-17T13:18:54.466Z,51.85
2018-06-17T13:21:26.746Z,51.94
2018-06-17T13:23:58.325Z,51.51
2018-06-17T13:26:31.487Z,51.07
2018-06-17T13:29:05.817Z,50.04
2018-06-17T13:31:38.769Z,50.01
2018-06-17T13:34:10.408Z,49.44
2018-06-17T13:36:45.084Z,49.49
2018-06-17T13:39:17.537Z,50.30
2018-06-17T13:41:48.041Z,50.38
2018-06-17T13:44:22.836Z,50.15
2018-06-17T13:46:52.795Z,51.63
2018-06-17T13:49:26.284Z,49.48
2018-06-17T13:51:59.426Z,50.38
2018-06-17T13:54:32.617Z,50.31
2018-06-17T13:57:04.049Z,48.65
2018-06-17T13:59:39.080Z,49.59
2018-06-17T14:02:11.886Z,49.74
2018-06-17T14:04:44.893Z,49.79
2018-06-17T14:07:16.520Z,51.21
2018-06-17T14:09:49.496Z,50.43
2018-06-17T14:12:19.520Z,50.99
2018-06-17T14:14:54.189Z,51.40
2018-06-17T14:17:27.513Z,51.50
2018-06-17T14:19:59.065Z,50.95
2018-06-17T14:22:32.066Z,52.70
2018-06-17T14:25:05.036Z,53.14
2018-06-17T14:27:37.062Z,52.28
2018-06-17T14:30:11.239Z,51.42
2018-06-17T14:32:44.500Z,52.72
2018-06-17T14:35:17.813Z,51.01
2018-06-17T14:37:49.226Z,50.79
2018-06-17T14:40:19.268Z,50.78
2018-06-17T14:43:07.164Z,51.96
2018-06-17T14:45:56.497Z,49.04
2018-06-17T14:49:04.182Z,48.96
2018-06-17T14:51:53.469Z,51.10
2018-06-17T14:54:23.885Z,48.62
2018-06-17T14:56:56.840Z,49.86
2018-06-17T14:59:26.773Z,53.51
2018-06-17T15:02:01.538Z,60.99
2018-06-17T15:04:36.090Z,62.33
2018-06-17T15:07:07.638Z,62.31
2018-06-17T15:09:41.464Z,65.15
2018-06-17T15:12:13.071Z,66.44
2018-06-17T15:14:47.806Z,66.90
2018-06-17T15:17:20.739Z,66.68
2018-06-17T15:19:52.956Z,66.04
2018-06-17T15:22:27.034Z,66.31
2018-06-17T15:25:00.222Z,66.61
2018-06-17T15:27:33.707Z,67.34
2018-06-17T15:30:06.587Z,67.29
2018-06-17T15:32:57.119Z,67.45
2018-06-17T15:35:47.676Z,68.19
2018-06-17T15:38:36.955Z,67.66
2018-06-17T15:41:29.622Z,67.83
2018-06-17T15:44:01.303Z,67.49
2018-06-17T15:46:34.261Z,67.86
2018-06-17T15:49:07.363Z,67.08
2018-06-17T15:51:37.473Z,66.13
2018-06-17T15:54:07.509Z,65.74
2018-06-17T15:56:39.053Z,65.19
2018-06-17T15:59:12.084Z,65.30
2018-06-17T16:01:45.635Z,65.51
2018-06-17T16:04:18.690Z,66.26
2018-06-17T16:06:50.800Z,66.17
2018-06-17T16:09:25.454Z,67.48
2018-06-17T16:12:16.135Z,68.91
2018-06-17T16:15:04.353Z,70.65
2018-06-17T16:17:53.932Z,68.46
2018-06-17T16:20:41.673Z,69.77
2018-06-17T16:23:13.387Z,69.65
2018-06-17T16:25:44.806Z,70.06
2018-06-17T16:28:16.624Z,68.58
2018-06-17T16:30:49.303Z,65.95
2018-06-17T16:33:20.956Z,65.56
2018-06-17T16:35:52.464Z,65.18
2018-06-17T16:38:26.961Z,65.70
2018-06-17T16:40:59.958Z,64.92
2018-06-17T16:43:31.380Z,64.79
2018-06-17T16:46:04.447Z,64.72
2018-06-17T16:48:36.136Z,64.90
2018-06-17T16:51:26.906Z,65.11
2018-06-17T16:54:17.340Z,64.94
2018-06-17T16:57:06.473Z,67.52
2018-06-17T16:59:57.723Z,67.92
2018-06-17T17:02:30.694Z,70.25
2018-06-17T17:05:03.948Z,70.58
2018-06-17T17:07:37.191Z,70.11
2018-06-17T17:10:10.161Z,70.90
2018-06-17T17:12:43.682Z,70.60
2018-06-17T17:15:16.967Z,70.33
2018-06-17T17:17:47.072Z,70.00
2018-06-17T17:20:20.279Z,69.74
2018-06-17T17:22:53.523Z,68.16
2018-06-17T17:25:26.657Z,67.75
2018-06-17T17:27:58.193Z,67.51
2018-06-17T17:30:31.033Z,68.48
2018-06-17T17:33:21.676Z,67.60
2018-06-17T17:36:12.414Z,66.42
2018-06-17T17:39:01.331Z,65.99
2018-06-17T17:41:33.605Z,66.21
2018-06-17T17:44:07.071Z,66.39
2018-06-17T17:46:57.493Z,65.82
2018-06-17T17:49:28.940Z,66.76
2018-06-17T17:52:02.062Z,66.49
2018-06-17T17:54:34.932Z,67.64
2018-06-17T17:57:08.166Z,66.88
2018-06-17T17:59:42.008Z,66.99
2018-06-17T18:02:15.200Z,66.37
2018-06-17T18:04:48.271Z,66.28
2018-06-17T18:07:21.227Z,66.39
2018-06-17T18:09:54.250Z,66.61
2018-06-17T18:12:27.314Z,67.46
2018-06-17T18:15:02.021Z,66.00
2018-06-17T18:17:35.240Z,66.30
2018-06-17T18:20:07.025Z,65.80
2018-06-17T18:22:40.109Z,66.33
2018-06-17T18:25:29.506Z,65.24
2018-06-17T18:28:17.034Z,65.83
2018-06-17T18:30:56.976Z,65.97
2018-06-17T18:33:46.146Z,66.32
2018-06-17T18:36:23.933Z,66.31
2018-06-17T18:38:55.554Z,66.30
2018-06-17T18:41:28.562Z,65.80
2018-06-17T18:44:02.630Z,64.70
2018-06-17T18:46:35.021Z,66.00
2018-06-17T18:49:08.253Z,66.18
2018-06-17T18:51:41.301Z,67.55
2018-06-17T18:54:16.037Z,66.51
2018-06-17T18:56:47.646Z,65.11
2018-06-17T18:59:22.680Z,65.06
2018-06-17T19:01:55.767Z,65.21
2018-06-17T19:04:25.703Z,66.09
2018-06-17T19:06:57.534Z,65.62
2018-06-17T19:09:46.510Z,66.69
2018-06-17T19:12:33.812Z,66.25
2018-06-17T19:15:22.815Z,66.99
2018-06-17T19:18:12.163Z,67.35
2018-06-17T19:20:45.290Z,66.60
2018-06-17T19:23:18.578Z,66.76
2018-06-17T19:25:51.748Z,66.42
2018-06-17T19:28:24.911Z,65.98
2018-06-17T19:30:56.378Z,66.59
2018-06-17T19:33:29.530Z,67.07
2018-06-17T19:36:00.525Z,66.99
2018-06-17T19:38:35.156Z,67.19
2018-06-17T19:41:07.785Z,67.95
2018-06-17T19:43:39.044Z,68.39
2018-06-17T19:46:12.102Z,67.76
2018-06-17T19:48:42.255Z,68.58
2018-06-17T19:51:31.430Z,68.80
2018-06-17T19:54:19.058Z,69.09
2018-06-17T19:57:08.218Z,69.38
2018-06-17T19:59:57.061Z,69.60
2018-06-17T20:02:29.982Z,69.45
2018-06-17T20:05:03.217Z,69.46
2018-06-17T20:07:36.416Z,69.23
2018-06-17T20:10:09.411Z,69.06
2018-06-17T20:12:40.863Z,70.21
2018-06-17T20:15:10.899Z,69.86
2018-06-17T20:17:44.090Z,70.52
2018-06-17T20:20:17.130Z,71.57
2018-06-17T20:22:51.916Z,73.30
2018-06-17T20:25:24.940Z,72.91
2018-06-17T20:27:57.068Z,72.23
2018-06-17T20:30:27.016Z,71.62
2018-06-17T20:33:17.167Z,71.99
2018-06-17T20:36:06.447Z,72.16
2018-06-17T20:38:55.602Z,73.46
2018-06-17T20:41:44.253Z,74.23
2018-06-17T20:44:15.822Z,74.07
2018-06-17T20:46:50.294Z,73.91
2018-06-17T20:49:25.185Z,74.24
2018-06-17T20:51:58.284Z,74.77
2018-06-17T20:54:29.101Z,74.90
2018-06-17T20:57:02.349Z,75.61
2018-06-17T20:59:35.912Z,75.38
2018-06-17T21:02:05.930Z,75.78
2018-06-17T21:04:39.449Z,75.18
2018-06-17T21:07:14.405Z,74.67
2018-06-17T21:09:48.964Z,74.69
2018-06-17T21:12:22.106Z,74.66
2018-06-17T21:14:56.780Z,74.83
2018-06-17T21:17:28.569Z,75.15
2018-06-17T21:20:37.043Z,74.49
2018-06-17T21:23:26.509Z,74.36
2018-06-17T21:26:15.571Z,74.66
2018-06-17T21:28:48.690Z,75.33
2018-06-17T21:31:21.639Z,75.60
2018-06-17T21:33:54.873Z,75.35
2018-06-17T21:36:28.576Z,74.36
2018-06-17T21:38:58.177Z,74.64
2018-06-17T21:41:31.414Z,74.68
2018-06-17T21:44:03.591Z,74.78
2018-06-17T21:46:38.068Z,74.26
2018-06-17T21:49:09.624Z,73.77
2018-06-17T21:51:44.327Z,73.77
2018-06-17T21:54:14.628Z,75.12
2018-06-17T21:56:47.649Z,76.58
2018-06-17T21:59:22.140Z,76.14
2018-06-17T22:01:53.633Z,75.57
2018-06-17T22:04:44.613Z,75.75
2018-06-17T22:07:19.256Z,76.16
2018-06-17T22:10:07.593Z,76.60
2018-06-17T22:12:56.330Z,76.78
2018-06-17T22:15:44.312Z,77.05
2018-06-17T22:18:17.400Z,76.08
2018-06-17T22:20:51.024Z,76.79
2018-06-17T22:23:22.534Z,76.13
2018-06-17T22:25:56.952Z,76.18
2018-06-17T22:28:31.785Z,75.52
2018-06-17T22:31:04.852Z,75.90
2018-06-17T22:33:39.476Z,75.88
2018-06-17T22:36:10.941Z,75.68
2018-06-17T22:38:43.856Z,75.23
2018-06-17T22:41:15.425Z,75.52
2018-06-17T22:43:48.696Z,75.09
2018-06-17T22:46:22.072Z,74.96
2018-06-17T22:48:51.508Z,74.31
2018-06-17T22:51:25.007Z,74.19
2018-06-17T22:54:32.665Z,73.80
2018-06-17T22:57:23.259Z,73.41
2018-06-17T23:00:10.805Z,73.77
2018-06-17T23:03:00.365Z,69.95
2018-06-17T23:05:49.191Z,68.29
2018-06-17T23:08:39.857Z,68.11
2018-06-17T23:11:11.763Z,67.35
2018-06-17T23:13:44.737Z,67.62
2018-06-17T23:16:16.108Z,67.03
2018-06-17T23:18:49.342Z,66.60
2018-06-17T23:21:23.705Z,66.38
2018-06-17T23:23:56.631Z,66.50
2018-06-17T23:26:28.093Z,66.51
2018-06-17T23:29:02.754Z,66.12
2018-06-17T23:31:32.814Z,66.51
2018-06-17T23:34:04.524Z,66.76
2018-06-17T23:36:38.207Z,66.35
2018-06-17T23:39:13.970Z,66.63
2018-06-17T23:41:48.868Z,66.73
2018-06-17T23:44:21.781Z,67.01
2018-06-17T23:47:09.360Z,66.75
2018-06-17T23:49:59.653Z,66.48
2018-06-17T23:52:50.563Z,66.98
2018-06-17T23:55:41.226Z,67.25
2018-06-17T23:58:14.274Z,67.53
